createdAt,value
2019-03-24T00:00:37.030Z,1021.33
2019-03-24T00:01:41.533Z,1021.33
2019-03-24T00:02:36.988Z,1021.27
2019-03-24T00:03:37.019Z,1021.34
2019-03-24T00:04:36.954Z,1021.32
2019-03-24T00:05:36.953Z,1021.27
2019-03-24T00:06:36.935Z,1021.26
2019-03-24T00:07:36.923Z,1021.29
2019-03-24T00:08:36.927Z,1021.28
2019-03-24T00:09:36.931Z,1021.28
2019-03-24T00:10:36.886Z,1021.28
2019-03-24T00:11:36.878Z,1021.29
2019-03-24T00:12:36.866Z,1021.31
2019-03-24T00:13:36.864Z,1021.32
2019-03-24T00:14:36.860Z,1021.35
2019-03-24T00:15:36.832Z,1021.36
2019-03-24T00:16:36.824Z,1021.35
2019-03-24T00:17:36.814Z,1021.32
2019-03-24T00:18:36.796Z,1021.35
2019-03-24T00:19:36.800Z,1021.33
2019-03-24T00:20:36.775Z,1021.34
2019-03-24T00:21:36.762Z,1021.35
2019-03-24T00:22:36.772Z,1021.35
2019-03-24T00:23:36.748Z,1021.35
2019-03-24T00:24:36.768Z,1021.31
2019-03-24T00:25:36.723Z,1021.30
2019-03-24T00:26:36.707Z,1021.28
2019-03-24T00:27:36.699Z,1021.29
2019-03-24T00:28:36.694Z,1021.32
2019-03-24T00:29:36.685Z,1021.28
2019-03-24T00:30:36.707Z,1021.28
2019-03-24T00:31:36.654Z,1021.26
2019-03-24T00:32:36.663Z,1021.29
2019-03-24T00:33:36.636Z,1021.27
2019-03-24T00:34:36.621Z,1021.27
2019-03-24T00:35:36.624Z,1021.26
2019-03-24T00:36:36.637Z,1021.26
2019-03-24T00:37:36.586Z,1021.31
2019-03-24T00:38:36.581Z,1021.27
2019-03-24T00:39:36.583Z,1021.23
2019-03-24T00:40:36.574Z,1021.26
2019-03-24T00:41:36.543Z,1021.25
2019-03-24T00:42:36.543Z,1021.28
2019-03-24T00:43:36.522Z,1021.26
2019-03-24T00:44:36.522Z,1021.24
2019-03-24T00:45:37.279Z,1021.27
2019-03-24T00:46:36.496Z,1021.24
2019-03-24T00:47:36.491Z,1021.30
2019-03-24T00:48:36.467Z,1021.26
2019-03-24T00:49:36.460Z,1021.28
2019-03-24T00:50:36.458Z,1021.23
2019-03-24T00:51:36.450Z,1021.15
2019-03-24T00:52:36.459Z,1021.19
2019-03-24T00:53:36.411Z,1021.22
2019-03-24T00:54:36.416Z,1021.21
2019-03-24T00:55:36.396Z,1021.14
2019-03-24T00:56:36.391Z,1021.19
2019-03-24T00:57:37.595Z,1021.11
2019-03-24T00:58:36.367Z,1021.10
2019-03-24T00:59:36.393Z,1021.06
2019-03-24T01:00:36.371Z,1021.08
2019-03-24T01:01:36.320Z,1021.06
2019-03-24T01:02:36.310Z,1021.07
2019-03-24T01:03:36.301Z,1021.08
2019-03-24T01:04:36.299Z,1021.10
2019-03-24T01:05:36.295Z,1021.05
2019-03-24T01:06:36.271Z,1021.03
2019-03-24T01:07:36.258Z,1021.03
2019-03-24T01:08:36.254Z,1020.99
2019-03-24T01:09:36.237Z,1020.99
2019-03-24T01:10:36.241Z,1021.02
2019-03-24T01:11:36.218Z,1021.04
2019-03-24T01:12:36.200Z,1021.04
2019-03-24T01:13:36.189Z,1021.02
2019-03-24T01:14:36.181Z,1021.06
2019-03-24T01:15:47.159Z,1021.03
2019-03-24T01:16:37.185Z,1021.03
2019-03-24T01:17:36.155Z,1021.01
2019-03-24T01:18:36.135Z,1021.01
2019-03-24T01:19:36.127Z,1021.02
2019-03-24T01:20:36.144Z,1021.03
2019-03-24T01:21:36.106Z,1020.99
2019-03-24T01:22:36.088Z,1020.97
2019-03-24T01:23:36.082Z,1021.01
2019-03-24T01:24:36.066Z,1021.01
2019-03-24T01:25:36.056Z,1021.00
2019-03-24T01:26:36.066Z,1020.97
2019-03-24T01:27:36.050Z,1020.94
2019-03-24T01:28:36.037Z,1020.92
2019-03-24T01:29:36.022Z,1020.92
2019-03-24T01:30:35.998Z,1020.95
2019-03-24T01:31:36.008Z,1020.94
2019-03-24T01:32:35.983Z,1020.95
2019-03-24T01:33:35.968Z,1020.96
2019-03-24T01:34:35.958Z,1020.95
2019-03-24T01:35:35.957Z,1021.00
2019-03-24T01:36:35.933Z,1020.99
2019-03-24T01:37:35.939Z,1020.93
2019-03-24T01:38:35.917Z,1020.96
2019-03-24T01:39:35.899Z,1020.90
2019-03-24T01:40:35.890Z,1020.89
2019-03-24T01:41:35.880Z,1020.86
2019-03-24T01:42:35.883Z,1020.87
2019-03-24T01:43:35.858Z,1020.91
2019-03-24T01:44:35.850Z,1020.89
2019-03-24T01:45:35.843Z,1020.92
2019-03-24T01:46:35.822Z,1020.90
2019-03-24T01:47:35.837Z,1020.87
2019-03-24T01:48:35.800Z,1020.92
2019-03-24T01:49:35.792Z,1020.86
2019-03-24T01:50:35.778Z,1020.88
2019-03-24T01:51:35.768Z,1020.89
2019-03-24T01:52:35.774Z,1020.87
2019-03-24T01:53:35.769Z,1020.84
2019-03-24T01:54:35.740Z,1020.84
2019-03-24T01:55:35.723Z,1020.84
2019-03-24T01:56:35.716Z,1020.87
2019-03-24T01:57:35.728Z,1020.84
2019-03-24T01:58:35.716Z,1020.83
2019-03-24T01:59:35.683Z,1020.84
2019-03-24T02:00:35.672Z,1020.83
2019-03-24T02:01:35.658Z,1020.84
2019-03-24T02:02:35.646Z,1020.85
2019-03-24T02:03:35.653Z,1020.85
2019-03-24T02:04:35.656Z,1020.89
2019-03-24T02:05:35.615Z,1020.94
2019-03-24T02:06:35.603Z,1020.93
2019-03-24T02:07:35.594Z,1020.92
2019-03-24T02:08:35.579Z,1020.94
2019-03-24T02:09:35.568Z,1020.90
2019-03-24T02:10:35.587Z,1020.90
2019-03-24T02:11:35.559Z,1020.92
2019-03-24T02:12:35.535Z,1020.94
2019-03-24T02:13:35.531Z,1020.91
2019-03-24T02:14:35.515Z,1020.88
2019-03-24T02:15:35.523Z,1020.86
2019-03-24T02:16:35.518Z,1020.86
2019-03-24T02:17:35.482Z,1020.86
2019-03-24T02:18:35.471Z,1020.94
2019-03-24T02:19:35.479Z,1020.91
2019-03-24T02:20:35.472Z,1020.87
2019-03-24T02:21:35.440Z,1020.91
2019-03-24T02:22:35.440Z,1020.87
2019-03-24T02:23:35.429Z,1020.89
2019-03-24T02:24:35.410Z,1020.92
2019-03-24T02:25:35.397Z,1020.92
2019-03-24T02:26:35.384Z,1020.92
2019-03-24T02:27:35.400Z,1020.93
2019-03-24T02:28:35.360Z,1020.92
2019-03-24T02:29:35.360Z,1020.90
2019-03-24T02:30:35.351Z,1020.91
2019-03-24T02:31:35.329Z,1020.88
2019-03-24T02:32:35.363Z,1020.92
2019-03-24T02:33:35.313Z,1020.92
2019-03-24T02:34:35.294Z,1020.95
2019-03-24T02:35:35.285Z,1020.92
2019-03-24T02:36:35.287Z,1020.91
2019-03-24T02:37:35.309Z,1020.91
2019-03-24T02:38:35.268Z,1020.92
2019-03-24T02:39:35.241Z,1020.94
2019-03-24T02:40:35.235Z,1020.94
2019-03-24T02:41:35.220Z,1020.98
2019-03-24T02:42:35.233Z,1020.94
2019-03-24T02:43:35.202Z,1020.88
2019-03-24T02:44:35.190Z,1020.93
2019-03-24T02:45:35.248Z,1020.92
2019-03-24T02:46:35.167Z,1020.94
2019-03-24T02:47:35.166Z,1020.94
2019-03-24T02:48:35.157Z,1020.88
2019-03-24T02:49:35.157Z,1020.93
2019-03-24T02:50:35.125Z,1020.94
2019-03-24T02:51:35.156Z,1020.95
2019-03-24T02:52:35.121Z,1020.89
2019-03-24T02:53:35.103Z,1020.93
2019-03-24T02:54:35.083Z,1020.94
2019-03-24T02:55:35.065Z,1020.94
2019-03-24T02:56:35.050Z,1020.89
2019-03-24T02:57:35.044Z,1020.88
2019-03-24T02:58:35.044Z,1020.89
2019-03-24T02:59:35.068Z,1020.83
2019-03-24T03:00:35.009Z,1020.90
2019-03-24T03:01:34.994Z,1020.89
2019-03-24T03:02:34.999Z,1020.85
2019-03-24T03:03:34.974Z,1020.84
2019-03-24T03:04:34.969Z,1020.84
2019-03-24T03:05:34.988Z,1020.81
2019-03-24T03:06:34.962Z,1020.83
2019-03-24T03:07:34.932Z,1020.81
2019-03-24T03:08:34.921Z,1020.83
2019-03-24T03:09:34.928Z,1020.78
2019-03-24T03:10:34.972Z,1020.79
2019-03-24T03:11:34.900Z,1020.80
2019-03-24T03:12:34.878Z,1020.77
2019-03-24T03:13:34.871Z,1020.77
2019-03-24T03:14:34.882Z,1020.76
2019-03-24T03:15:34.841Z,1020.69
2019-03-24T03:16:38.845Z,1020.72
2019-03-24T03:17:34.863Z,1020.73
2019-03-24T03:18:34.808Z,1020.71
2019-03-24T03:19:34.803Z,1020.73
2019-03-24T03:20:34.830Z,1020.72
2019-03-24T03:21:34.823Z,1020.71
2019-03-24T03:22:34.781Z,1020.68
2019-03-24T03:23:34.754Z,1020.70
2019-03-24T03:24:34.751Z,1020.68
2019-03-24T03:25:34.756Z,1020.66
2019-03-24T03:26:34.756Z,1020.66
2019-03-24T03:27:34.719Z,1020.67
2019-03-24T03:28:34.697Z,1020.71
2019-03-24T03:29:34.706Z,1020.62
2019-03-24T03:30:34.680Z,1020.61
2019-03-24T03:31:34.683Z,1020.59
2019-03-24T03:32:34.701Z,1020.59
2019-03-24T03:33:34.674Z,1020.58
2019-03-24T03:34:34.642Z,1020.55
2019-03-24T03:35:34.654Z,1020.52
2019-03-24T03:36:34.611Z,1020.50
2019-03-24T03:37:34.601Z,1020.52
2019-03-24T03:38:34.651Z,1020.50
2019-03-24T03:39:34.594Z,1020.46
2019-03-24T03:40:34.582Z,1020.44
2019-03-24T03:41:34.562Z,1020.41
2019-03-24T03:42:34.562Z,1020.42
2019-03-24T03:43:34.562Z,1020.39
2019-03-24T03:44:34.544Z,1020.42
2019-03-24T03:45:34.519Z,1020.44
2019-03-24T03:46:34.511Z,1020.44
2019-03-24T03:47:34.540Z,1020.46
2019-03-24T03:48:34.494Z,1020.42
2019-03-24T03:49:34.485Z,1020.45
2019-03-24T03:50:34.465Z,1020.48
2019-03-24T03:51:34.469Z,1020.50
2019-03-24T03:52:34.435Z,1020.49
2019-03-24T03:53:34.437Z,1020.45
2019-03-24T03:54:34.428Z,1020.44
2019-03-24T03:55:34.401Z,1020.44
2019-03-24T03:56:34.421Z,1020.44
2019-03-24T03:57:34.382Z,1020.35
2019-03-24T03:58:34.382Z,1020.40
2019-03-24T03:59:34.378Z,1020.36
2019-03-24T04:00:34.356Z,1020.39
2019-03-24T04:01:34.342Z,1020.42
2019-03-24T04:02:34.355Z,1020.41
2019-03-24T04:03:34.372Z,1020.42
2019-03-24T04:04:34.302Z,1020.40
2019-03-24T04:05:34.311Z,1020.40
2019-03-24T04:06:34.303Z,1020.38
2019-03-24T04:07:34.270Z,1020.34
2019-03-24T04:08:34.255Z,1020.37
2019-03-24T04:09:34.307Z,1020.34
2019-03-24T04:10:34.240Z,1020.34
2019-03-24T04:11:34.232Z,1020.37
2019-03-24T04:12:34.222Z,1020.39
2019-03-24T04:13:34.225Z,1020.38
2019-03-24T04:14:34.207Z,1020.36
2019-03-24T04:15:34.246Z,1020.35
2019-03-24T04:16:34.171Z,1020.34
2019-03-24T04:17:34.162Z,1020.31
2019-03-24T04:18:34.152Z,1020.32
2019-03-24T04:19:34.155Z,1020.29
2019-03-24T04:20:34.169Z,1020.32
2019-03-24T04:21:34.128Z,1020.28
2019-03-24T04:22:34.114Z,1020.29
2019-03-24T04:23:34.116Z,1020.26
2019-03-24T04:24:34.093Z,1020.33
2019-03-24T04:25:34.074Z,1020.29
2019-03-24T04:26:34.182Z,1020.31
2019-03-24T04:27:34.069Z,1020.27
2019-03-24T04:28:34.036Z,1020.27
2019-03-24T04:29:34.044Z,1020.26
2019-03-24T04:30:34.023Z,1020.28
2019-03-24T04:31:34.043Z,1020.28
2019-03-24T04:32:34.005Z,1020.31
2019-03-24T04:33:33.981Z,1020.28
2019-03-24T04:34:33.981Z,1020.27
2019-03-24T04:35:33.968Z,1020.25
2019-03-24T04:36:33.973Z,1020.21
2019-03-24T04:37:33.967Z,1020.20
2019-03-24T04:38:33.937Z,1020.17
2019-03-24T04:39:33.917Z,1020.17
2019-03-24T04:40:33.905Z,1020.19
2019-03-24T04:41:34.663Z,1020.18
2019-03-24T04:42:33.904Z,1020.14
2019-03-24T04:43:33.883Z,1020.14
2019-03-24T04:44:33.864Z,1020.15
2019-03-24T04:45:33.854Z,1020.13
2019-03-24T04:46:33.838Z,1020.13
2019-03-24T04:47:33.827Z,1020.11
2019-03-24T04:48:33.871Z,1020.08
2019-03-24T04:49:33.815Z,1020.07
2019-03-24T04:50:33.793Z,1020.07
2019-03-24T04:51:33.782Z,1020.08
2019-03-24T04:52:33.773Z,1020.09
2019-03-24T04:53:33.776Z,1020.09
2019-03-24T04:54:33.771Z,1020.08
2019-03-24T04:55:33.803Z,1020.09
2019-03-24T04:56:33.738Z,1020.07
2019-03-24T04:57:33.729Z,1020.10
2019-03-24T04:58:33.705Z,1020.12
2019-03-24T04:59:33.699Z,1020.14
2019-03-24T05:00:33.696Z,1020.11
2019-03-24T05:01:33.677Z,1020.15
2019-03-24T05:02:33.663Z,1020.14
2019-03-24T05:03:33.650Z,1020.17
2019-03-24T05:04:33.648Z,1020.20
2019-03-24T05:05:33.657Z,1020.23
2019-03-24T05:06:33.618Z,1020.25
2019-03-24T05:07:33.608Z,1020.27
2019-03-24T05:08:33.604Z,1020.29
2019-03-24T05:09:33.586Z,1020.29
2019-03-24T05:10:33.587Z,1020.33
2019-03-24T05:11:33.601Z,1020.32
2019-03-24T05:12:33.554Z,1020.24
2019-03-24T05:13:33.545Z,1020.26
2019-03-24T05:14:33.533Z,1020.25
2019-03-24T05:15:33.538Z,1020.19
2019-03-24T05:16:33.523Z,1020.19
2019-03-24T05:17:33.517Z,1020.14
2019-03-24T05:18:33.494Z,1020.13
2019-03-24T05:19:33.489Z,1020.17
2019-03-24T05:20:33.469Z,1020.17
2019-03-24T05:21:33.458Z,1020.15
2019-03-24T05:22:33.452Z,1020.12
2019-03-24T05:23:33.445Z,1020.11
2019-03-24T05:24:33.421Z,1020.09
2019-03-24T05:25:33.407Z,1020.10
2019-03-24T05:26:33.401Z,1020.10
2019-03-24T05:27:33.400Z,1020.08
2019-03-24T05:28:33.390Z,1020.10
2019-03-24T05:29:33.367Z,1020.06
2019-03-24T05:30:33.368Z,1020.04
2019-03-24T05:31:33.346Z,1020.06
2019-03-24T05:32:33.335Z,1020.10
2019-03-24T05:33:33.383Z,1020.05
2019-03-24T05:34:33.319Z,1019.99
2019-03-24T05:35:33.299Z,1019.99
2019-03-24T05:36:33.294Z,1019.96
2019-03-24T05:37:33.281Z,1019.96
2019-03-24T05:38:33.269Z,1019.94
2019-03-24T05:39:33.282Z,1019.91
2019-03-24T05:40:33.272Z,1019.95
2019-03-24T05:41:33.243Z,1019.91
2019-03-24T05:42:33.234Z,1019.96
2019-03-24T05:43:33.211Z,1019.93
2019-03-24T05:44:33.210Z,1019.92
2019-03-24T05:45:33.207Z,1019.98
2019-03-24T05:46:33.177Z,1019.95
2019-03-24T05:47:37.155Z,1019.92
2019-03-24T05:48:33.162Z,1019.94
2019-03-24T05:49:33.190Z,1019.92
2019-03-24T05:50:33.151Z,1019.86
2019-03-24T05:51:33.121Z,1019.86
2019-03-24T05:52:33.115Z,1019.87
2019-03-24T05:53:33.096Z,1019.86
2019-03-24T05:54:33.116Z,1019.84
2019-03-24T05:55:33.117Z,1019.81
2019-03-24T05:56:33.082Z,1019.83
2019-03-24T05:57:33.081Z,1019.84
2019-03-24T05:58:33.043Z,1019.87
2019-03-24T05:59:33.040Z,1019.89
2019-03-24T06:00:33.040Z,1019.86
2019-03-24T06:01:33.032Z,1019.84
2019-03-24T06:02:33.007Z,1019.87
2019-03-24T06:03:32.994Z,1019.84
2019-03-24T06:04:32.997Z,1019.88
2019-03-24T06:05:32.967Z,1019.88
2019-03-24T06:06:32.969Z,1019.87
2019-03-24T06:07:32.961Z,1019.84
2019-03-24T06:08:32.938Z,1019.80
2019-03-24T06:09:32.919Z,1019.81
2019-03-24T06:10:32.920Z,1019.81
2019-03-24T06:11:32.917Z,1019.82
2019-03-24T06:12:32.909Z,1019.82
2019-03-24T06:13:32.886Z,1019.82
2019-03-24T06:14:32.876Z,1019.79
2019-03-24T06:15:32.867Z,1019.79
2019-03-24T06:16:32.846Z,1019.79
2019-03-24T06:17:32.846Z,1019.75
2019-03-24T06:18:32.838Z,1019.75
2019-03-24T06:19:32.828Z,1019.74
2019-03-24T06:20:32.805Z,1019.76
2019-03-24T06:21:32.803Z,1019.78
2019-03-24T06:22:32.797Z,1019.77
2019-03-24T06:23:32.768Z,1019.75
2019-03-24T06:24:32.758Z,1019.72
2019-03-24T06:25:34.903Z,1019.75
2019-03-24T06:26:32.749Z,1019.71
2019-03-24T06:27:32.739Z,1019.70
2019-03-24T06:28:32.723Z,1019.76
2019-03-24T06:29:32.714Z,1019.77
2019-03-24T06:30:32.700Z,1019.68
2019-03-24T06:31:32.683Z,1019.72
2019-03-24T06:32:32.712Z,1019.69
2019-03-24T06:33:32.672Z,1019.66
2019-03-24T06:34:32.649Z,1019.73
2019-03-24T06:35:32.637Z,1019.73
2019-03-24T06:36:32.636Z,1019.74
2019-03-24T06:37:32.616Z,1019.74
2019-03-24T06:38:32.619Z,1019.77
2019-03-24T06:39:32.591Z,1019.80
2019-03-24T06:40:32.584Z,1019.80
2019-03-24T06:41:32.625Z,1019.82
2019-03-24T06:42:32.554Z,1019.87
2019-03-24T06:43:32.557Z,1019.84
2019-03-24T06:44:32.556Z,1019.81
2019-03-24T06:45:32.557Z,1019.81
2019-03-24T06:46:32.520Z,1019.78
2019-03-24T06:47:32.505Z,1019.79
2019-03-24T06:48:32.492Z,1019.78
2019-03-24T06:49:32.473Z,1019.81
2019-03-24T06:50:32.470Z,1019.87
2019-03-24T06:51:32.483Z,1019.78
2019-03-24T06:52:32.441Z,1019.77
2019-03-24T06:53:32.434Z,1019.78
2019-03-24T06:54:32.464Z,1019.78
2019-03-24T06:55:32.419Z,1019.76
2019-03-24T06:56:32.400Z,1019.76
2019-03-24T06:57:32.427Z,1019.73
2019-03-24T06:58:32.390Z,1019.72
2019-03-24T06:59:32.384Z,1019.71
2019-03-24T07:00:32.354Z,1019.80
2019-03-24T07:01:32.343Z,1019.70
2019-03-24T07:02:32.370Z,1019.71
2019-03-24T07:03:32.820Z,1019.72
2019-03-24T07:04:32.314Z,1019.73
2019-03-24T07:05:32.318Z,1019.63
2019-03-24T07:06:34.649Z,1019.63
2019-03-24T07:07:32.277Z,1019.62
2019-03-24T07:08:32.270Z,1019.63
2019-03-24T07:09:32.265Z,1019.58
2019-03-24T07:10:32.269Z,1019.57
2019-03-24T07:11:32.230Z,1019.59
2019-03-24T07:12:32.223Z,1019.60
2019-03-24T07:13:32.207Z,1019.52
2019-03-24T07:14:32.227Z,1019.52
2019-03-24T07:15:32.227Z,1019.53
2019-03-24T07:16:32.185Z,1019.55
2019-03-24T07:17:32.162Z,1019.55
2019-03-24T07:18:32.153Z,1019.56
2019-03-24T07:19:32.140Z,1019.56
2019-03-24T07:20:32.128Z,1019.59
2019-03-24T07:21:32.178Z,1019.54
2019-03-24T07:22:32.116Z,1019.54
2019-03-24T07:23:32.097Z,1019.49
2019-03-24T07:24:32.095Z,1019.46
2019-03-24T07:25:32.101Z,1019.45
2019-03-24T07:26:32.074Z,1019.42
2019-03-24T07:27:32.049Z,1019.42
2019-03-24T07:28:32.048Z,1019.39
2019-03-24T07:29:32.039Z,1019.39
2019-03-24T07:30:32.029Z,1019.39
2019-03-24T07:31:32.028Z,1019.38
2019-03-24T07:32:31.993Z,1019.40
2019-03-24T07:33:31.995Z,1019.34
2019-03-24T07:34:31.988Z,1019.35
2019-03-24T07:35:31.996Z,1019.29
2019-03-24T07:36:31.951Z,1019.28
2019-03-24T07:37:31.957Z,1019.24
2019-03-24T07:38:31.948Z,1019.28
2019-03-24T07:39:31.915Z,1019.25
2019-03-24T07:40:31.904Z,1019.23
2019-03-24T07:41:31.913Z,1019.22
2019-03-24T07:42:31.915Z,1019.26
2019-03-24T07:43:31.871Z,1019.19
2019-03-24T07:44:31.897Z,1019.15
2019-03-24T07:45:31.874Z,1019.16
2019-03-24T07:46:31.841Z,1019.20
2019-03-24T07:47:31.849Z,1019.22
2019-03-24T07:48:31.828Z,1019.21
2019-03-24T07:49:31.810Z,1019.20
2019-03-24T07:50:31.792Z,1019.21
2019-03-24T07:51:31.792Z,1019.19
2019-03-24T07:52:31.770Z,1019.17
2019-03-24T07:53:31.811Z,1019.23
2019-03-24T07:57:09.708Z,1019.31
2019-03-24T07:58:08.430Z,1019.36
2019-03-24T07:59:08.415Z,1019.37
2019-03-24T08:00:08.403Z,1019.34
2019-03-24T08:01:08.384Z,1019.38
2019-03-24T08:02:08.388Z,1019.37
2019-03-24T08:03:08.399Z,1019.39
2019-03-24T08:04:08.367Z,1019.40
2019-03-24T08:05:08.339Z,1019.38
2019-03-24T08:06:08.367Z,1019.45
2019-03-24T08:07:08.318Z,1019.43
2019-03-24T08:08:08.305Z,1019.46
2019-03-24T08:09:08.329Z,1019.31
2019-03-24T08:10:08.286Z,1019.35
2019-03-24T08:11:08.292Z,1019.40
2019-03-24T08:12:08.285Z,1019.33
2019-03-24T08:13:08.248Z,1019.31
2019-03-24T08:14:08.247Z,1019.36
2019-03-24T08:15:08.239Z,1019.48
2019-03-24T08:16:08.230Z,1019.39
2019-03-24T08:17:08.204Z,1019.38
2019-03-24T08:18:08.202Z,1019.28
2019-03-24T08:19:08.189Z,1019.28
2019-03-24T08:20:08.204Z,1019.37
2019-03-24T08:21:08.167Z,1019.24
2019-03-24T08:22:08.149Z,1019.26
2019-03-24T08:23:08.140Z,1019.27
2019-03-24T08:24:08.131Z,1019.21
2019-03-24T08:25:08.117Z,1019.16
2019-03-24T08:26:08.118Z,1019.20
2019-03-24T08:27:08.103Z,1019.21
2019-03-24T08:28:08.080Z,1019.30
2019-03-24T08:29:08.098Z,1019.30
2019-03-24T08:30:08.062Z,1019.31
2019-03-24T08:31:08.067Z,1019.28
2019-03-24T08:32:08.041Z,1019.29
2019-03-24T08:33:08.051Z,1019.31
2019-03-24T08:34:08.015Z,1019.35
2019-03-24T08:35:08.003Z,1019.31
2019-03-24T08:36:08.008Z,1019.21
2019-03-24T08:37:07.989Z,1019.18
2019-03-24T08:38:07.974Z,1019.18
2019-03-24T08:39:08.737Z,1019.18
2019-03-24T08:40:07.955Z,1019.17
2019-03-24T08:41:07.938Z,1019.19
2019-03-24T08:42:07.952Z,1019.20
2019-03-24T08:43:07.911Z,1019.17
2019-03-24T08:44:07.910Z,1019.17
2019-03-24T08:45:07.904Z,1019.20
2019-03-24T08:46:07.879Z,1019.20
2019-03-24T08:47:07.912Z,1019.18
2019-03-24T08:48:07.891Z,1019.18
2019-03-24T08:49:07.848Z,1019.25
2019-03-24T08:50:07.830Z,1019.18
2019-03-24T08:51:07.836Z,1019.22
2019-03-24T08:52:07.814Z,1019.14
2019-03-24T08:53:07.839Z,1019.08
2019-03-24T08:54:07.796Z,1019.10
2019-03-24T08:55:07.780Z,1019.12
2019-03-24T08:56:07.762Z,1019.08
2019-03-24T08:57:07.757Z,1019.03
2019-03-24T08:58:07.740Z,1019.07
2019-03-24T08:59:07.751Z,1019.09
2019-03-24T09:00:07.721Z,1019.11
2019-03-24T09:01:07.719Z,1019.08
2019-03-24T09:02:07.710Z,1019.07
2019-03-24T09:03:07.684Z,1019.07
2019-03-24T09:04:07.693Z,1019.08
2019-03-24T09:05:07.676Z,1019.14
2019-03-24T09:06:07.649Z,1019.10
2019-03-24T09:07:07.638Z,1019.19
2019-03-24T09:08:07.639Z,1019.17
2019-03-24T09:09:07.618Z,1019.16
2019-03-24T09:10:07.646Z,1019.16
2019-03-24T09:11:07.593Z,1019.10
2019-03-24T09:12:07.597Z,1019.06
2019-03-24T09:13:07.574Z,1019.02
2019-03-24T09:14:07.562Z,1018.99
2019-03-24T09:15:07.578Z,1018.97
2019-03-24T09:16:07.568Z,1018.92
2019-03-24T09:17:07.525Z,1018.84
2019-03-24T09:18:07.514Z,1018.87
2019-03-24T09:19:07.559Z,1018.82
2019-03-24T09:20:07.493Z,1018.70
2019-03-24T09:21:07.504Z,1018.76
2019-03-24T09:22:07.487Z,1018.67
2019-03-24T09:23:07.474Z,1018.70
2019-03-24T09:24:07.446Z,1018.67
2019-03-24T09:25:07.462Z,1018.64
2019-03-24T09:26:07.428Z,1018.62
2019-03-24T09:27:07.441Z,1018.54
2019-03-24T09:28:09.204Z,1018.52
2019-03-24T09:29:07.407Z,1018.52
2019-03-24T09:30:07.407Z,1018.48
2019-03-24T09:31:07.369Z,1018.48
2019-03-24T09:32:07.406Z,1018.54
2019-03-24T09:33:07.346Z,1018.50
2019-03-24T09:34:07.365Z,1018.53
2019-03-24T09:35:07.338Z,1018.48
2019-03-24T09:36:07.360Z,1018.48
2019-03-24T09:37:07.373Z,1018.42
2019-03-24T09:38:07.298Z,1018.41
2019-03-24T09:39:07.317Z,1018.35
2019-03-24T09:40:07.280Z,1018.38
2019-03-24T09:41:07.285Z,1018.31
2019-03-24T09:42:07.244Z,1018.26
2019-03-24T09:43:07.260Z,1018.26
2019-03-24T09:44:07.224Z,1018.24
2019-03-24T09:45:07.231Z,1018.19
2019-03-24T09:46:07.278Z,1018.20
2019-03-24T09:47:07.198Z,1018.16
2019-03-24T09:48:07.224Z,1018.13
2019-03-24T09:49:07.181Z,1018.09
2019-03-24T09:50:07.152Z,1018.09
2019-03-24T09:51:07.145Z,1018.07
2019-03-24T09:52:07.128Z,1018.09
2019-03-24T09:53:07.155Z,1018.08
2019-03-24T09:54:07.118Z,1018.07
2019-03-24T09:55:07.106Z,1018.06
2019-03-24T09:56:07.087Z,1018.06
2019-03-24T09:57:07.076Z,1018.04
2019-03-24T09:58:07.096Z,1017.98
2019-03-24T09:59:07.101Z,1018.00
2019-03-24T10:00:07.046Z,1017.99
2019-03-24T10:01:07.026Z,1017.95
2019-03-24T10:02:07.020Z,1017.91
2019-03-24T10:03:07.008Z,1017.89
2019-03-24T10:04:07.051Z,1017.94
2019-03-24T10:05:07.018Z,1017.88
2019-03-24T10:06:06.977Z,1017.87
2019-03-24T10:07:06.974Z,1017.81
2019-03-24T10:08:06.966Z,1017.80
2019-03-24T10:09:06.939Z,1017.78
2019-03-24T10:10:06.928Z,1017.75
2019-03-24T10:11:06.938Z,1017.68
2019-03-24T10:12:06.926Z,1017.65
2019-03-24T10:13:06.901Z,1017.62
2019-03-24T10:14:06.880Z,1017.61
2019-03-24T10:15:06.877Z,1017.53
2019-03-24T10:16:06.906Z,1017.55
2019-03-24T10:17:06.847Z,1017.56
2019-03-24T10:18:06.840Z,1017.54
2019-03-24T10:19:13.924Z,1017.46
2019-03-24T10:20:07.814Z,1017.44
2019-03-24T10:21:06.819Z,1017.45
2019-03-24T10:22:06.812Z,1017.42
2019-03-24T10:23:06.782Z,1017.41
2019-03-24T10:24:07.977Z,1017.44
2019-03-24T10:25:06.760Z,1017.33
2019-03-24T10:26:06.745Z,1017.33
2019-03-24T10:27:06.782Z,1017.34
2019-03-24T10:28:06.726Z,1017.31
2019-03-24T10:29:06.740Z,1017.31
2019-03-24T10:30:06.700Z,1017.37
2019-03-24T10:31:06.689Z,1017.41
2019-03-24T10:32:06.680Z,1017.47
2019-03-24T10:33:06.691Z,1017.40
2019-03-24T10:34:06.665Z,1017.43
2019-03-24T10:35:06.712Z,1017.45
2019-03-24T10:36:06.631Z,1017.40
2019-03-24T10:37:06.637Z,1017.36
2019-03-24T10:38:06.677Z,1017.40
2019-03-24T10:39:06.613Z,1017.36
2019-03-24T10:40:06.590Z,1017.38
2019-03-24T10:41:06.579Z,1017.33
2019-03-24T10:42:06.581Z,1017.33
2019-03-24T10:43:06.556Z,1017.26
2019-03-24T10:44:06.563Z,1017.21
2019-03-24T10:45:06.534Z,1017.18
2019-03-24T10:46:06.522Z,1017.12
2019-03-24T10:47:06.561Z,1017.07
2019-03-24T10:48:06.500Z,1017.06
2019-03-24T10:49:06.488Z,1017.07
2019-03-24T10:50:06.491Z,1017.05
2019-03-24T10:51:06.480Z,1017.10
2019-03-24T10:52:06.457Z,1017.13
2019-03-24T10:53:06.456Z,1017.12
2019-03-24T10:54:06.450Z,1017.21
2019-03-24T10:55:06.423Z,1017.19
2019-03-24T10:56:06.407Z,1017.14
2019-03-24T10:57:06.412Z,1017.19
2019-03-24T10:58:06.413Z,1017.15
2019-03-24T10:59:06.401Z,1017.20
2019-03-24T11:00:06.370Z,1017.17
2019-03-24T11:01:06.375Z,1017.17
2019-03-24T11:02:06.359Z,1017.10
2019-03-24T11:03:06.363Z,1017.12
2019-03-24T11:04:06.334Z,1017.09
2019-03-24T11:05:06.326Z,1017.05
2019-03-24T11:06:06.306Z,1017.05
2019-03-24T11:07:06.298Z,1017.05
2019-03-24T11:08:06.273Z,1017.09
2019-03-24T11:09:06.287Z,1017.09
2019-03-24T11:10:06.251Z,1017.08
2019-03-24T11:11:06.271Z,1017.05
2019-03-24T11:12:06.227Z,1017.08
2019-03-24T11:13:06.220Z,1017.04
2019-03-24T11:14:06.245Z,1017.02
2019-03-24T11:15:06.241Z,1017.03
2019-03-24T11:16:06.183Z,1017.02
2019-03-24T11:17:06.211Z,1016.96
2019-03-24T11:18:06.169Z,1016.97
2019-03-24T11:19:06.181Z,1016.96
2019-03-24T11:20:06.137Z,1017.01
2019-03-24T11:21:06.133Z,1016.97
2019-03-24T11:22:06.135Z,1017.00
2019-03-24T11:23:06.146Z,1017.01
2019-03-24T11:24:06.092Z,1016.96
2019-03-24T11:25:06.087Z,1016.90
2019-03-24T11:26:06.089Z,1016.91
2019-03-24T11:27:06.071Z,1016.87
2019-03-24T11:28:06.049Z,1016.83
2019-03-24T11:29:06.044Z,1016.86
2019-03-24T11:30:06.023Z,1016.83
2019-03-24T11:31:06.018Z,1016.81
2019-03-24T11:32:06.028Z,1016.82
2019-03-24T11:33:06.005Z,1016.84
2019-03-24T11:34:05.997Z,1016.78
2019-03-24T11:35:05.971Z,1016.78
2019-03-24T11:36:05.971Z,1016.83
2019-03-24T11:37:05.960Z,1016.76
2019-03-24T11:38:05.936Z,1016.80
2019-03-24T11:39:05.927Z,1016.80
2019-03-24T11:40:05.926Z,1016.86
2019-03-24T11:41:05.900Z,1016.81
2019-03-24T11:42:05.900Z,1016.77
2019-03-24T11:43:05.919Z,1016.76
2019-03-24T11:44:05.878Z,1016.71
2019-03-24T11:45:05.872Z,1016.68
2019-03-24T11:46:05.847Z,1016.73
2019-03-24T11:47:05.836Z,1016.65
2019-03-24T11:48:05.820Z,1016.66
2019-03-24T11:49:05.813Z,1016.63
2019-03-24T11:50:05.834Z,1016.60
2019-03-24T11:51:05.790Z,1016.46
2019-03-24T11:52:05.779Z,1016.51
2019-03-24T11:53:05.782Z,1016.44
2019-03-24T11:54:05.762Z,1016.41
2019-03-24T11:55:05.748Z,1016.45
2019-03-24T11:56:05.772Z,1016.42
2019-03-24T11:57:05.739Z,1016.37
2019-03-24T11:58:06.388Z,1016.38
2019-03-24T11:59:05.699Z,1016.36
2019-03-24T12:00:05.693Z,1016.34
2019-03-24T12:01:05.710Z,1016.36
2019-03-24T12:02:05.691Z,1016.33
2019-03-24T12:03:05.654Z,1016.32
2019-03-24T12:04:05.641Z,1016.26
2019-03-24T12:05:05.633Z,1016.21
2019-03-24T12:06:13.855Z,1016.18
2019-03-24T12:07:06.641Z,1016.19
2019-03-24T12:08:05.617Z,1016.12